Kiyoyasumaru — JD4054 — position and weather

sailwx.info

Track history (hours):
 
Tides and Currents Weather Stations Pressure Air Temp Water Temp Dewpoint Dewpoint Depression Visibility Wind Speed Wind Dir Waves Ship Positions

Kiyoyasumaru

Last reported at 2018-Jun-23 12:57 UTC. Time now 2018-Jun-25 08:20 UTC.
Position N 34°25' E 134°13'.

Length 148 m; draft 5.7 m.

Type: Cargo ship. MMSI: 431008495.

Date/timePositionNaut miles runAvg speedWind from/ knotsBaromVisibWave heightAir tempDewpointWater temp
2018-Jun-23 12:57N 34°25' E 134°13'612.6
2018-Jun-23 12:30N 34°25' E 134°20'713.8
2018-Jun-23 12:00N 34°28' E 134°28'714.1
2018-Jun-23 11:30N 34°31' E 134°36'713.8
2018-Jun-23 11:00N 34°33' E 134°44'714.7
2018-Jun-23 10:30N 34°35' E 134°52'815.0
2018-Jun-23 09:59N 34°37' E 135°01'713.8
2018-Jun-23 09:30N 34°36' E 135°09'713.9
2018-Jun-23 09:00N 34°37' E 135°17'712.2
2018-Jun-23 08:28N 34°39' E 135°25'2 3.9
2018-Jun-23 08:00N 34°39' E 135°27'0 0.0
2018-Jun-23 07:28N 34°39' E 135°27'0 0.0
2018-Jun-23 06:52N 34°39' E 135°27'0 0.0
2018-Jun-23 06:04N 34°39' E 135°27'0 0.1
2018-Jun-23 05:58N 34°39' E 135°27'0 0.0
2018-Jun-23 05:10N 34°39' E 135°27'0 0.0
2018-Jun-23 04:58N 34°39' E 135°27'0 0.0
2018-Jun-23 04:28N 34°39' E 135°27'0 0.0
2018-Jun-23 03:58N 34°39' E 135°27'0 0.0
2018-Jun-23 03:16N 34°39' E 135°27'0 0.0
2018-Jun-23 02:58N 34°39' E 135°27'0 0.0
2018-Jun-23 02:28N 34°39' E 135°27'0 0.0
2018-Jun-23 01:52N 34°39' E 135°27'0 0.0
2018-Jun-23 01:28N 34°39' E 135°27'0 0.0
2018-Jun-23 00:58N 34°39' E 135°27'0 0.0
2018-Jun-23 00:28N 34°39' E 135°27'0 0.0
2018-Jun-22 23:58N 34°39' E 135°27'0 0.0
2018-Jun-22 23:22N 34°39' E 135°27'0 0.0
2018-Jun-22 22:52N 34°39' E 135°27'0 0.0
2018-Jun-22 22:28N 34°39' E 135°27'0 0.0
2018-Jun-22 21:40N 34°39' E 135°27'0 0.0
2018-Jun-22 21:16N 34°39' E 135°27'0 0.1
2018-Jun-22 20:58N 34°39' E 135°27'1 2.7
2018-Jun-22 20:30N 34°39' E 135°26'5 9.6
2018-Jun-22 20:00N 34°36' E 135°21'2 4.7
2018-Jun-22 19:30N 34°35' E 135°18'0 0.0
2018-Jun-22 18:57N 34°35' E 135°18'0 0.0
2018-Jun-22 18:27N 34°35' E 135°18'0 0.0
2018-Jun-22 17:54N 34°35' E 135°18'0 0.1
2018-Jun-22 17:30N 34°35' E 135°18'2 3.7
2018-Jun-22 17:01N 34°35' E 135°16'612.4
2018-Jun-22 16:30N 34°33' E 135°08'611.1
2018-Jun-22 16:00N 34°36' E 135°02'612.6
2018-Jun-22 15:31N 34°35' E 134°55'713.7
2018-Jun-22 15:00N 34°33' E 134°47'713.3
2018-Jun-22 14:30N 34°30' E 134°40'713.2
2018-Jun-22 14:00N 34°28' E 134°32'713.3
2018-Jun-22 13:30N 34°25' E 134°25'713.1
2018-Jun-22 13:00N 34°24' E 134°17'713.6
2018-Jun-22 12:30N 34°25' E 134°09'713.3
2018-Jun-22 12:00N 34°25' E 134°01'  
2018-Jun-20 06:55N 34°25' E 134°13'614.1
2018-Jun-20 06:30N 34°25' E 134°20'714.3
2018-Jun-20 06:00N 34°27' E 134°28'714.4
2018-Jun-20 05:30N 34°30' E 134°36'714.6
2018-Jun-20 05:00N 34°32' E 134°44'815.6
2018-Jun-20 04:30N 34°36' E 134°53'714.5
2018-Jun-20 04:00N 34°37' E 135°02'713.6
2018-Jun-20 03:31N 34°35' E 135°09'713.8
2018-Jun-20 03:00N 34°34' E 135°18'712.5
2018-Jun-20 02:28N 34°33' E 135°26'0 0.9
2018-Jun-20 01:55N 34°33' E 135°26'0 0.0
2018-Jun-20 01:16N 34°33' E 135°26'0 0.0
2018-Jun-20 00:58N 34°33' E 135°26'0 0.0
2018-Jun-20 00:28N 34°33' E 135°26'0 0.0
2018-Jun-19 23:31N 34°33' E 135°26'0 0.1
2018-Jun-19 23:07N 34°33' E 135°26'0 0.1
2018-Jun-19 22:55N 34°33' E 135°26'2 4.2
2018-Jun-19 22:30N 34°33' E 135°24'5 9.7
2018-Jun-19 22:00N 34°34' E 135°18'1 1.4
2018-Jun-19 21:30N 34°35' E 135°18'0 0.0
2018-Jun-19 20:54N 34°35' E 135°18'0 0.0
2018-Jun-19 20:30N 34°35' E 135°18'0 0.0
2018-Jun-19 20:00N 34°35' E 135°18'0 0.0
2018-Jun-19 19:24N 34°35' E 135°18'0 0.0
2018-Jun-19 19:00N 34°35' E 135°18'0 0.0
2018-Jun-19 18:30N 34°35' E 135°18'0 0.0
2018-Jun-19 18:00N 34°35' E 135°18'0 0.0
2018-Jun-19 17:30N 34°35' E 135°18'0 0.0
2018-Jun-19 17:00N 34°35' E 135°18'0 0.0
2018-Jun-19 16:30N 34°35' E 135°18'0 0.0
2018-Jun-19 16:00N 34°35' E 135°18'0 0.0
2018-Jun-19 15:24N 34°35' E 135°18'0 0.0
2018-Jun-19 14:59N 34°35' E 135°18'0 0.0
2018-Jun-19 14:18N 34°35' E 135°18'0 0.0
2018-Jun-19 14:00N 34°35' E 135°18'0 0.1
2018-Jun-19 13:29N 34°35' E 135°18'0 0.0
2018-Jun-19 13:00N 34°35' E 135°18'0 0.0
2018-Jun-19 12:30N 34°35' E 135°18'0 0.0
2018-Jun-19 11:53N 34°35' E 135°18'0 0.0
2018-Jun-19 11:30N 34°35' E 135°18'0 0.0
2018-Jun-19 11:00N 34°35' E 135°18'0 0.0
2018-Jun-19 10:30N 34°35' E 135°18'0 0.0
2018-Jun-19 10:00N 34°35' E 135°18'0 0.0
2018-Jun-19 09:24N 34°35' E 135°18'0 0.0
2018-Jun-19 09:00N 34°35' E 135°18'0 0.0
2018-Jun-19 08:24N 34°35' E 135°18'0 0.0
2018-Jun-19 08:00N 34°35' E 135°18'0 0.0
2018-Jun-19 07:29N 34°35' E 135°18'0 0.0
2018-Jun-19 07:00N 34°35' E 135°18'4 8.0
2018-Jun-19 06:30N 34°37' E 135°22'4 8.6
2018-Jun-19 06:00N 34°39' E 135°26'0 0.1
2018-Jun-18 23:35N 34°39' E 135°27'0 0.0
2018-Jun-18 23:29N 34°39' E 135°27'0 0.0
2018-Jun-18 22:41N 34°39' E 135°27'0 0.0
2018-Jun-18 22:29N 34°39' E 135°27'0 0.0
2018-Jun-18 21:47N 34°39' E 135°27'0 0.0
2018-Jun-18 21:29N 34°39' E 135°27'0 0.0
2018-Jun-18 20:59N 34°39' E 135°27'2 3.7
2018-Jun-18 20:30N 34°39' E 135°25'510.1
2018-Jun-18 20:00N 34°36' E 135°20'2 4.2
2018-Jun-18 19:29N 34°35' E 135°17'0 0.0
2018-Jun-18 18:53N 34°35' E 135°17'0 0.0
2018-Jun-18 18:29N 34°35' E 135°17'0 0.0
2018-Jun-18 17:59N 34°35' E 135°17'0 0.0
2018-Jun-18 17:29N 34°35' E 135°17'0 0.0
2018-Jun-18 16:59N 34°35' E 135°17'0 0.0
2018-Jun-18 16:29N 34°35' E 135°17'0 0.0
2018-Jun-18 15:59N 34°35' E 135°17'0 0.0
2018-Jun-18 15:26N 34°35' E 135°17'0 0.0
2018-Jun-18 14:59N 34°35' E 135°17'0 0.0
2018-Jun-18 14:29N 34°35' E 135°17'0 0.0
2018-Jun-18 13:59N 34°35' E 135°17'4 8.3
2018-Jun-18 13:30N 34°35' E 135°12'713.4
2018-Jun-18 13:00N 34°35' E 135°04'5 9.8
2018-Jun-18 12:30N 34°37' E 134°58'612.3
2018-Jun-18 12:00N 34°34' E 134°52'713.1
2018-Jun-18 11:30N 34°31' E 134°45'713.1
2018-Jun-18 11:00N 34°29' E 134°37'713.6
2018-Jun-18 10:30N 34°27' E 134°29'713.6
2018-Jun-18 09:59N 34°24' E 134°22'8 0.2
2018-Jun-16 12:49N 34°25' E 134°12'515.0
2018-Jun-16 12:30N 34°25' E 134°18'714.2
2018-Jun-16 12:00N 34°27' E 134°26'714.5
2018-Jun-16 11:30N 34°30' E 134°34'714.9
2018-Jun-16 11:00N 34°32' E 134°43'814.9
2018-Jun-16 10:30N 34°35' E 134°51'714.6
2018-Jun-16 10:00N 34°38' E 134°59'612.9
2018-Jun-16 09:31N 34°36' E 135°07'713.0
2018-Jun-16 09:00N 34°37' E 135°15'612.1
2018-Jun-16 08:31N 34°38' E 135°22'4 8.0
2018-Jun-16 08:01N 34°39' E 135°27'0 0.5
2018-Jun-16 07:27N 34°39' E 135°27'0 0.0
2018-Jun-16 06:57N 34°39' E 135°27'0 0.0
2018-Jun-16 06:21N 34°39' E 135°27'0 0.0
2018-Jun-16 05:57N 34°39' E 135°27'0 0.0
2018-Jun-16 05:27N 34°39' E 135°27'0 0.0
2018-Jun-16 04:57N 34°39' E 135°27'0 0.0
2018-Jun-16 04:21N 34°39' E 135°27'0 0.0
2018-Jun-16 03:45N 34°39' E 135°27'0 0.0
2018-Jun-16 03:27N 34°39' E 135°27'0 0.0
2018-Jun-16 02:57N 34°39' E 135°27'0 0.0
2018-Jun-16 02:27N 34°39' E 135°27'0 0.0
2018-Jun-16 01:57N 34°39' E 135°27'0 0.0
2018-Jun-16 01:21N 34°39' E 135°27'0 0.0
2018-Jun-16 00:57N 34°39' E 135°27'0 0.0
2018-Jun-16 00:27N 34°39' E 135°27'0 0.0
2018-Jun-15 23:51N 34°39' E 135°27'0 0.0
2018-Jun-15 23:27N 34°39' E 135°27'0 0.0
2018-Jun-15 22:39N 34°39' E 135°27'0 0.0
2018-Jun-15 22:15N 34°39' E 135°27'0 0.0
2018-Jun-15 21:57N 34°39' E 135°27'0 0.0
2018-Jun-15 21:21N 34°39' E 135°27'0 0.0
2018-Jun-15 20:51N 34°39' E 135°27'0 0.0
2018-Jun-15 13:57N 34°39' E 135°27'0 0.0
2018-Jun-15 13:21N 34°39' E 135°27'0 0.0
2018-Jun-15 12:57N 34°39' E 135°27'0 0.0
2018-Jun-15 12:27N 34°39' E 135°27'0 0.0
2018-Jun-15 11:51N 34°39' E 135°27'0 0.0
2018-Jun-15 11:15N 34°39' E 135°27'0 0.0
2018-Jun-15 10:51N 34°39' E 135°27'0 0.0
2018-Jun-15 08:09N 34°39' E 135°27'0 2.3
2018-Jun-15 08:00N 34°39' E 135°27'3 6.9
2018-Jun-15 07:30N 34°38' E 135°23'4 8.8
2018-Jun-15 07:00N 34°33' E 135°24'2 3.5
2018-Jun-15 06:20N 34°33' E 135°26'0 0.0
2018-Jun-15 05:56N 34°33' E 135°26'0 0.0
2018-Jun-15 05:26N 34°33' E 135°26'0 0.0
2018-Jun-15 04:56N 34°33' E 135°26'0 0.0
2018-Jun-15 01:14N 34°33' E 135°26'0 0.0
2018-Jun-15 00:59N 34°33' E 135°26'0 0.0
2018-Jun-15 00:29N 34°33' E 135°26'0 0.1
2018-Jun-15 00:00N 34°33' E 135°26'2 4.8
2018-Jun-14 23:30N 34°33' E 135°23'5 9.3
2018-Jun-14 22:58N 34°32' E 135°18'5 9.8
2018-Jun-14 22:28N 34°29' E 135°13'511.4
2018-Jun-14 22:00N 34°25' E 135°08'611.6
2018-Jun-14 21:30N 34°22' E 135°03'611.7
2018-Jun-14 21:00N 34°17' E 134°59'611.4
2018-Jun-14 20:30N 34°11' E 134°59'612.0
2018-Jun-14 20:00N 34°05' E 134°57'612.3
2018-Jun-14 19:30N 33°59' E 134°56'612.2
2018-Jun-14 18:59N 33°53' E 134°54'  
Track history (hours):
 
Tides and Currents Weather Stations Pressure Air Temp Water Temp Dewpoint Dewpoint Depression Visibility Wind Speed Wind Dir Waves Ship Positions

Kiyoyasumaru

Last reported at 2018-Jun-23 12:57 UTC. Time now 2018-Jun-25 08:20 UTC.
Position N 34°25' E 134°13'.

Length 148 m; draft 5.7 m.

Type: Cargo ship. MMSI: 431008495.

Date/timePositionNaut miles runAvg speedWind from/ knotsBaromVisibWave heightAir tempDewpointWater temp
2018-Jun-23 12:57N 34°25' E 134°13'612.6
2018-Jun-23 12:30N 34°25' E 134°20'713.8
2018-Jun-23 12:00N 34°28' E 134°28'714.1
2018-Jun-23 11:30N 34°31' E 134°36'713.8
2018-Jun-23 11:00N 34°33' E 134°44'714.7
2018-Jun-23 10:30N 34°35' E 134°52'815.0
2018-Jun-23 09:59N 34°37' E 135°01'713.8
2018-Jun-23 09:30N 34°36' E 135°09'713.9
2018-Jun-23 09:00N 34°37' E 135°17'712.2
2018-Jun-23 08:28N 34°39' E 135°25'2 3.9
2018-Jun-23 08:00N 34°39' E 135°27'0 0.0
2018-Jun-23 07:28N 34°39' E 135°27'0 0.0
2018-Jun-23 06:52N 34°39' E 135°27'0 0.0
2018-Jun-23 06:04N 34°39' E 135°27'0 0.1
2018-Jun-23 05:58N 34°39' E 135°27'0 0.0
2018-Jun-23 05:10N 34°39' E 135°27'0 0.0
2018-Jun-23 04:58N 34°39' E 135°27'0 0.0
2018-Jun-23 04:28N 34°39' E 135°27'0 0.0
2018-Jun-23 03:58N 34°39' E 135°27'0 0.0
2018-Jun-23 03:16N 34°39' E 135°27'0 0.0
2018-Jun-23 02:58N 34°39' E 135°27'0 0.0
2018-Jun-23 02:28N 34°39' E 135°27'0 0.0
2018-Jun-23 01:52N 34°39' E 135°27'0 0.0
2018-Jun-23 01:28N 34°39' E 135°27'0 0.0
2018-Jun-23 00:58N 34°39' E 135°27'0 0.0
2018-Jun-23 00:28N 34°39' E 135°27'0 0.0
2018-Jun-22 23:58N 34°39' E 135°27'0 0.0
2018-Jun-22 23:22N 34°39' E 135°27'0 0.0
2018-Jun-22 22:52N 34°39' E 135°27'0 0.0
2018-Jun-22 22:28N 34°39' E 135°27'0 0.0
2018-Jun-22 21:40N 34°39' E 135°27'0 0.0
2018-Jun-22 21:16N 34°39' E 135°27'0 0.1
2018-Jun-22 20:58N 34°39' E 135°27'1 2.7
2018-Jun-22 20:30N 34°39' E 135°26'5 9.6
2018-Jun-22 20:00N 34°36' E 135°21'2 4.7
2018-Jun-22 19:30N 34°35' E 135°18'0 0.0
2018-Jun-22 18:57N 34°35' E 135°18'0 0.0
2018-Jun-22 18:27N 34°35' E 135°18'0 0.0
2018-Jun-22 17:54N 34°35' E 135°18'0 0.1
2018-Jun-22 17:30N 34°35' E 135°18'2 3.7
2018-Jun-22 17:01N 34°35' E 135°16'612.4
2018-Jun-22 16:30N 34°33' E 135°08'611.1
2018-Jun-22 16:00N 34°36' E 135°02'612.6
2018-Jun-22 15:31N 34°35' E 134°55'713.7
2018-Jun-22 15:00N 34°33' E 134°47'713.3
2018-Jun-22 14:30N 34°30' E 134°40'713.2
2018-Jun-22 14:00N 34°28' E 134°32'713.3
2018-Jun-22 13:30N 34°25' E 134°25'713.1
2018-Jun-22 13:00N 34°24' E 134°17'713.6
2018-Jun-22 12:30N 34°25' E 134°09'713.3
2018-Jun-22 12:00N 34°25' E 134°01'  
2018-Jun-20 06:55N 34°25' E 134°13'614.1
2018-Jun-20 06:30N 34°25' E 134°20'714.3
2018-Jun-20 06:00N 34°27' E 134°28'714.4
2018-Jun-20 05:30N 34°30' E 134°36'714.6
2018-Jun-20 05:00N 34°32' E 134°44'815.6
2018-Jun-20 04:30N 34°36' E 134°53'714.5
2018-Jun-20 04:00N 34°37' E 135°02'713.6
2018-Jun-20 03:31N 34°35' E 135°09'713.8
2018-Jun-20 03:00N 34°34' E 135°18'712.5
2018-Jun-20 02:28N 34°33' E 135°26'0 0.9
2018-Jun-20 01:55N 34°33' E 135°26'0 0.0
2018-Jun-20 01:16N 34°33' E 135°26'0 0.0
2018-Jun-20 00:58N 34°33' E 135°26'0 0.0
2018-Jun-20 00:28N 34°33' E 135°26'0 0.0
2018-Jun-19 23:31N 34°33' E 135°26'0 0.1
2018-Jun-19 23:07N 34°33' E 135°26'0 0.1
2018-Jun-19 22:55N 34°33' E 135°26'2 4.2
2018-Jun-19 22:30N 34°33' E 135°24'5 9.7
2018-Jun-19 22:00N 34°34' E 135°18'1 1.4
2018-Jun-19 21:30N 34°35' E 135°18'0 0.0
2018-Jun-19 20:54N 34°35' E 135°18'0 0.0
2018-Jun-19 20:30N 34°35' E 135°18'0 0.0
2018-Jun-19 20:00N 34°35' E 135°18'0 0.0
2018-Jun-19 19:24N 34°35' E 135°18'0 0.0
2018-Jun-19 19:00N 34°35' E 135°18'0 0.0
2018-Jun-19 18:30N 34°35' E 135°18'0 0.0
2018-Jun-19 18:00N 34°35' E 135°18'0 0.0
2018-Jun-19 17:30N 34°35' E 135°18'0 0.0
2018-Jun-19 17:00N 34°35' E 135°18'0 0.0
2018-Jun-19 16:30N 34°35' E 135°18'0 0.0
2018-Jun-19 16:00N 34°35' E 135°18'0 0.0
2018-Jun-19 15:24N 34°35' E 135°18'0 0.0
2018-Jun-19 14:59N 34°35' E 135°18'0 0.0
2018-Jun-19 14:18N 34°35' E 135°18'0 0.0
2018-Jun-19 14:00N 34°35' E 135°18'0 0.1
2018-Jun-19 13:29N 34°35' E 135°18'0 0.0
2018-Jun-19 13:00N 34°35' E 135°18'0 0.0
2018-Jun-19 12:30N 34°35' E 135°18'0 0.0
2018-Jun-19 11:53N 34°35' E 135°18'0 0.0
2018-Jun-19 11:30N 34°35' E 135°18'0 0.0
2018-Jun-19 11:00N 34°35' E 135°18'0 0.0
2018-Jun-19 10:30N 34°35' E 135°18'0 0.0
2018-Jun-19 10:00N 34°35' E 135°18'0 0.0
2018-Jun-19 09:24N 34°35' E 135°18'0 0.0
2018-Jun-19 09:00N 34°35' E 135°18'0 0.0
2018-Jun-19 08:24N 34°35' E 135°18'0 0.0
2018-Jun-19 08:00N 34°35' E 135°18'0 0.0
2018-Jun-19 07:29N 34°35' E 135°18'0 0.0
2018-Jun-19 07:00N 34°35' E 135°18'4 8.0
2018-Jun-19 06:30N 34°37' E 135°22'4 8.6
2018-Jun-19 06:00N 34°39' E 135°26'0 0.1
2018-Jun-18 23:35N 34°39' E 135°27'0 0.0
2018-Jun-18 23:29N 34°39' E 135°27'0 0.0
2018-Jun-18 22:41N 34°39' E 135°27'0 0.0
2018-Jun-18 22:29N 34°39' E 135°27'0 0.0
2018-Jun-18 21:47N 34°39' E 135°27'0 0.0
2018-Jun-18 21:29N 34°39' E 135°27'0 0.0
2018-Jun-18 20:59N 34°39' E 135°27'2 3.7
2018-Jun-18 20:30N 34°39' E 135°25'510.1
2018-Jun-18 20:00N 34°36' E 135°20'2 4.2
2018-Jun-18 19:29N 34°35' E 135°17'0 0.0
2018-Jun-18 18:53N 34°35' E 135°17'0 0.0
2018-Jun-18 18:29N 34°35' E 135°17'0 0.0
2018-Jun-18 17:59N 34°35' E 135°17'0 0.0
2018-Jun-18 17:29N 34°35' E 135°17'0 0.0
2018-Jun-18 16:59N 34°35' E 135°17'0 0.0
2018-Jun-18 16:29N 34°35' E 135°17'0 0.0
2018-Jun-18 15:59N 34°35' E 135°17'0 0.0
2018-Jun-18 15:26N 34°35' E 135°17'0 0.0
2018-Jun-18 14:59N 34°35' E 135°17'0 0.0
2018-Jun-18 14:29N 34°35' E 135°17'0 0.0
2018-Jun-18 13:59N 34°35' E 135°17'4 8.3
2018-Jun-18 13:30N 34°35' E 135°12'713.4
2018-Jun-18 13:00N 34°35' E 135°04'5 9.8
2018-Jun-18 12:30N 34°37' E 134°58'612.3
2018-Jun-18 12:00N 34°34' E 134°52'713.1
2018-Jun-18 11:30N 34°31' E 134°45'713.1
2018-Jun-18 11:00N 34°29' E 134°37'713.6
2018-Jun-18 10:30N 34°27' E 134°29'713.6
2018-Jun-18 09:59N 34°24' E 134°22'8 0.2
2018-Jun-16 12:49N 34°25' E 134°12'515.0
2018-Jun-16 12:30N 34°25' E 134°18'714.2
2018-Jun-16 12:00N 34°27' E 134°26'714.5
2018-Jun-16 11:30N 34°30' E 134°34'714.9
2018-Jun-16 11:00N 34°32' E 134°43'814.9
2018-Jun-16 10:30N 34°35' E 134°51'714.6
2018-Jun-16 10:00N 34°38' E 134°59'612.9
2018-Jun-16 09:31N 34°36' E 135°07'713.0
2018-Jun-16 09:00N 34°37' E 135°15'612.1
2018-Jun-16 08:31N 34°38' E 135°22'4 8.0
2018-Jun-16 08:01N 34°39' E 135°27'0 0.5
2018-Jun-16 07:27N 34°39' E 135°27'0 0.0
2018-Jun-16 06:57N 34°39' E 135°27'0 0.0
2018-Jun-16 06:21N 34°39' E 135°27'0 0.0
2018-Jun-16 05:57N 34°39' E 135°27'0 0.0
2018-Jun-16 05:27N 34°39' E 135°27'0 0.0
2018-Jun-16 04:57N 34°39' E 135°27'0 0.0
2018-Jun-16 04:21N 34°39' E 135°27'0 0.0
2018-Jun-16 03:45N 34°39' E 135°27'0 0.0
2018-Jun-16 03:27N 34°39' E 135°27'0 0.0
2018-Jun-16 02:57N 34°39' E 135°27'0 0.0
2018-Jun-16 02:27N 34°39' E 135°27'0 0.0
2018-Jun-16 01:57N 34°39' E 135°27'0 0.0
2018-Jun-16 01:21N 34°39' E 135°27'0 0.0
2018-Jun-16 00:57N 34°39' E 135°27'0 0.0
2018-Jun-16 00:27N 34°39' E 135°27'0 0.0
2018-Jun-15 23:51N 34°39' E 135°27'0 0.0
2018-Jun-15 23:27N 34°39' E 135°27'0 0.0
2018-Jun-15 22:39N 34°39' E 135°27'0 0.0
2018-Jun-15 22:15N 34°39' E 135°27'0 0.0
2018-Jun-15 21:57N 34°39' E 135°27'0 0.0
2018-Jun-15 21:21N 34°39' E 135°27'0 0.0
2018-Jun-15 20:51N 34°39' E 135°27'0 0.0
2018-Jun-15 13:57N 34°39' E 135°27'0 0.0
2018-Jun-15 13:21N 34°39' E 135°27'0 0.0
2018-Jun-15 12:57N 34°39' E 135°27'0 0.0
2018-Jun-15 12:27N 34°39' E 135°27'0 0.0
2018-Jun-15 11:51N 34°39' E 135°27'0 0.0
2018-Jun-15 11:15N 34°39' E 135°27'0 0.0
2018-Jun-15 10:51N 34°39' E 135°27'0 0.0
2018-Jun-15 08:09N 34°39' E 135°27'0 2.3
2018-Jun-15 08:00N 34°39' E 135°27'3 6.9
2018-Jun-15 07:30N 34°38' E 135°23'4 8.8
2018-Jun-15 07:00N 34°33' E 135°24'2 3.5
2018-Jun-15 06:20N 34°33' E 135°26'0 0.0
2018-Jun-15 05:56N 34°33' E 135°26'0 0.0
2018-Jun-15 05:26N 34°33' E 135°26'0 0.0
2018-Jun-15 04:56N 34°33' E 135°26'0 0.0
2018-Jun-15 01:14N 34°33' E 135°26'0 0.0
2018-Jun-15 00:59N 34°33' E 135°26'0 0.0
2018-Jun-15 00:29N 34°33' E 135°26'0 0.1
2018-Jun-15 00:00N 34°33' E 135°26'2 4.8
2018-Jun-14 23:30N 34°33' E 135°23'5 9.3
2018-Jun-14 22:58N 34°32' E 135°18'5 9.8
2018-Jun-14 22:28N 34°29' E 135°13'511.4
2018-Jun-14 22:00N 34°25' E 135°08'611.6
2018-Jun-14 21:30N 34°22' E 135°03'611.7
2018-Jun-14 21:00N 34°17' E 134°59'611.4
2018-Jun-14 20:30N 34°11' E 134°59'612.0
2018-Jun-14 20:00N 34°05' E 134°57'612.3
2018-Jun-14 19:30N 33°59' E 134°56'612.2
2018-Jun-14 18:59N 33°53' E 134°54'  

Dump ship's entire track history